• Join FlightAware (Why Join?)
  • Login
  • US Flag 
06:32AM EDT


 

Airport Tracker/Info


-or-


 

Live Flight TrackerFlight Track Log ✈ CSN3950 ✈ 27.03.2014 ✈ ZUJZ / JZH - ZUCK / CKG

Flight Track Log - Related Links

Times and Time Zones

All times are in EDT time to prevent confusion due to time zone crossing. See the CSN3950 flight status page for this flight to view local times or setup timezone preferences in your user account.

Time Position Orientation Groundspeed Altitude Reporting Facility
EDT Latitude Longitude Course Direction KTS MPH feet Rate Location/Type
12:54AM 32.7923 103.7468 140° Southeast  Level Estimated
12:55AM 32.7275 103.8104 140° Southeast  Level Estimated
12:56AM 32.6748 103.8622 140° Southeast  Level Estimated
12:57AM 32.6221 103.9138 140° Southeast  Level Estimated
12:58AM 32.5693 103.9655 140° Southeast  Level Estimated
12:59AM 32.5165 104.0170 141° Southeast  Level Estimated
01:00AM 32.4637 104.0685 141° Southeast  Level Estimated
01:01AM 32.4109 104.1199 141° Southeast  Level Estimated
01:02AM 32.3581 104.1713 141° Southeast  Level Estimated
01:03AM 32.3052 104.2226 141° Southeast  Level Estimated
01:04AM 32.2523 104.2739 141° Southeast  Level Estimated
01:05AM 32.1994 104.3251 141° Southeast  Level Estimated
01:06AM 32.1465 104.3762 141° Southeast  Level Estimated
01:07AM 32.0935 104.4273 141° Southeast  Level Estimated
01:08AM 32.0406 104.4783 141° Southeast  Level Estimated
01:09AM 31.9876 104.5292 141° Southeast  Level Estimated
01:10AM 31.9346 104.5801 141° Southeast  Level Estimated
01:11AM 31.8816 104.6310 141° Southeast  Level Estimated
01:12AM 31.8285 104.6817 141° Southeast  Level Estimated
01:13AM 31.7754 104.7325 141° Southeast  Level Estimated
01:14AM 31.7224 104.7831 141° Southeast  Level Estimated
01:15AM 31.6693 104.8337 141° Southeast  Level Estimated
01:16AM 31.6161 104.8843 141° Southeast  Level Estimated
01:17AM 31.5630 104.9348 141° Southeast  Level Estimated
01:18AM 31.5098 104.9852 141° Southeast  Level Estimated
01:19AM 31.4566 105.0356 141° Southeast  Level Estimated
01:20AM 31.4034 105.0859 141° Southeast  Level Estimated
01:21AM 31.3502 105.1361 141° Southeast  Level Estimated
01:22AM 31.2969 105.1863 141° Southeast  Level Estimated
01:23AM 31.2437 105.2365 141° Southeast  Level Estimated
01:24AM 31.1904 105.2866 141° Southeast  Level Estimated
01:25AM 31.1371 105.3366 141° Southeast  Level Estimated
01:26AM 31.0838 105.3866 141° Southeast  Level Estimated
01:27AM 31.0304 105.4365 141° Southeast  Level Estimated
01:28AM 30.9771 105.4864 141° Southeast  Level Estimated
01:29AM 30.9237 105.5362 141° Southeast  Level Estimated
01:30AM 30.8703 105.5860 141° Southeast  Level Estimated
01:31AM 30.8169 105.6356 141° Southeast  Level Estimated
01:32AM 30.7634 105.6853 141° Southeast  Level Estimated
01:33AM 30.7100 105.7349 141° Southeast  Level Estimated
01:34AM 30.6565 105.7844 141° Southeast  Level Estimated
01:35AM 30.6030 105.8339 141° Southeast  Level Estimated
01:36AM 30.5495 105.8833 141° Southeast  Level Estimated
01:37AM 30.4960 105.9327 142° Southeast  Level Estimated
01:38AM 30.4424 105.9820 142° Southeast  Level Estimated
01:39AM 30.3889 106.0312 142° Southeast  Level Estimated
01:40AM 30.3353 106.0805 142° Southeast  Level Estimated
01:41AM 30.2817 106.1296 142° Southeast  Level Estimated
01:42AM 30.2281 106.1787 142° Southeast  Level Estimated
01:43AM 30.1744 106.2278 142° Southeast  Level Estimated
01:44AM 30.1207 106.2767 142° Southeast  Level Estimated
01:45AM 30.0671 106.3257 142° Southeast  Level Estimated
01:46AM 30.0134 106.3746 142° Southeast  Level Estimated
01:47AM 29.9597 106.4234 142° Southeast  Level Estimated
01:48AM 29.9059 106.4722 142° Southeast  Level Estimated
01:49AM 29.8522 106.5209 142° Southeast  Level Estimated
01:50AM 29.7984 106.5696 142° Southeast  Level Estimated
01:51AM 29.7446 106.6182 142° Southeast  Level Estimated
01:52AM 29.7194 106.6410 142° Southeast  Level Estimated
01:53AM 29.7194 106.6410 North  Level Estimated
01:54AM 29.7194 106.6410 North  Level Estimated
01:55AM 29.7194 106.6410 North  Level Estimated
01:56AM 29.7194 106.6410 North  Level Estimated
01:57AM 29.7194 106.6410 North  Level Estimated
01:58AM 29.7194 106.6410 North  Level Estimated
01:59AM 29.7194 106.6410 North  Level Estimated
02:00AM 29.7194 106.6410 North  Level Estimated
02:01AM 29.7194 106.6410 North  Level Estimated
02:02AM 29.7194 106.6410 North  Level Estimated
02:03AM 29.7194 106.6410 North  Level Estimated